Time;durP1;ratioP1;P1;durP2;ratioP2;P2;SDS_P1;SDS_P2;PMS_P1;PMS_P2;Temp;Humidity;BMP_temperature;BMP_pressure;BME280_temperature;BME280_humidity;BME280_pressure;Samples;Min_cycle;Max_cycle;Signal;HPM_P1;HPM_P2
2022/07/27 00:01:06;;;;;;;5.95;4.63;;;27.60;55.20;;;;;;5035107;28;20380;-83
2022/07/27 00:03:32;;;;;;;5.88;4.40;;;27.30;55.80;;;;;;5033984;28;20523;-84
2022/07/27 00:05:58;;;;;;;5.93;4.50;;;27.30;55.90;;;;;;5034762;28;20021;-77
2022/07/27 00:08:23;;;;;;;5.93;4.70;;;27.20;55.60;;;;;;5033719;28;20558;-80
2022/07/27 00:10:50;;;;;;;6.13;4.20;;;27.40;55.80;;;;;;5021542;28;20032;-77
2022/07/27 00:13:16;;;;;;;5.93;4.25;;;27.50;54.50;;;;;;5013762;28;20033;-78
2022/07/27 00:15:42;;;;;;;6.43;4.18;;;27.70;54.70;;;;;;5018248;28;20075;-77
2022/07/27 00:18:08;;;;;;;6.20;4.40;;;27.80;54.50;;;;;;5033961;28;20030;-78
2022/07/27 00:20:35;;;;;;;5.80;4.30;;;27.90;54.40;;;;;;5035625;28;20057;-80
2022/07/27 00:23:01;;;;;;;8.05;4.68;;;28.00;53.70;;;;;;5029590;28;20396;-78
2022/07/27 00:25:26;;;;;;;6.30;4.65;;;27.80;53.80;;;;;;5033995;28;20057;-76
2022/07/27 00:27:53;;;;;;;5.88;4.50;;;27.70;54.00;;;;;;5032083;28;20064;-75
2022/07/27 00:30:20;;;;;;;6.05;4.35;;;27.70;54.20;;;;;;5026314;28;20033;-87
2022/07/27 00:32:46;;;;;;;7.82;4.95;;;27.70;54.00;;;;;;5033651;28;20491;-75
2022/07/27 00:35:11;;;;;;;8.75;4.72;;;27.70;53.90;;;;;;5034691;28;20136;-79
2022/07/27 00:37:38;;;;;;;7.78;4.30;;;27.80;53.50;;;;;;5034695;28;20122;-78
2022/07/27 00:40:06;;;;;;;6.03;4.28;;;27.70;53.10;;;;;;5033368;28;20029;-76
2022/07/27 00:42:32;;;;;;;6.07;4.53;;;27.60;53.60;;;;;;5032369;28;20049;-76
2022/07/27 00:44:57;;;;;;;6.32;4.40;;;27.60;54.30;;;;;;5027687;28;20380;-77
2022/07/27 00:47:24;;;;;;;7.13;4.45;;;27.70;53.70;;;;;;5014863;28;20040;-86
2022/07/27 00:49:51;;;;;;;6.35;4.13;;;27.60;53.40;;;;;;5012784;28;20025;-85
2022/07/27 00:52:19;;;;;;;6.47;4.45;;;27.50;52.70;;;;;;5014038;28;20040;-84
2022/07/27 00:54:46;;;;;;;9.00;4.45;;;27.40;53.10;;;;;;5014277;28;20435;-78
2022/07/27 00:57:13;;;;;;;6.93;4.47;;;27.50;53.30;;;;;;5014275;28;20022;-78
2022/07/27 00:59:40;;;;;;;7.15;4.53;;;27.70;53.80;;;;;;5013679;28;20037;-75
2022/07/27 01:02:07;;;;;;;6.05;4.32;;;27.80;53.50;;;;;;5016623;28;20021;-76
2022/07/27 01:04:33;;;;;;;6.28;4.60;;;27.90;53.20;;;;;;5026476;28;20032;-80
2022/07/27 01:06:59;;;;;;;5.25;4.25;;;27.80;51.90;;;;;;5029530;28;20022;-75
2022/07/27 01:12:17;;;;;;;5.25;4.38;;;28.00;52.00;;;;;;5026720;28;20033;-83
2022/07/27 01:14:43;;;;;;;5.97;4.40;;;27.90;52.00;;;;;;5014312;28;20038;-77
2022/07/27 01:17:09;;;;;;;6.03;4.60;;;27.70;52.00;;;;;;5013884;28;20026;-75
2022/07/27 01:19:35;;;;;;;6.32;4.72;;;27.50;52.90;;;;;;5014008;28;20061;-79
2022/07/27 01:22:04;;;;;;;7.95;4.97;;;27.50;53.20;;;;;;5020755;28;20029;-87
2022/07/27 01:24:29;;;;;;;6.28;4.40;;;27.70;52.30;;;;;;5033797;28;20059;-76
2022/07/27 01:26:55;;;;;;;7.35;4.25;;;27.70;51.70;;;;;;5030447;28;20100;-74
2022/07/27 01:29:21;;;;;;;7.35;4.72;;;27.80;52.40;;;;;;5013496;28;20583;-76
2022/07/27 01:31:47;;;;;;;7.22;4.85;;;27.90;52.20;;;;;;5013587;28;20098;-75
2022/07/27 01:34:13;;;;;;;7.32;4.70;;;28.00;52.50;;;;;;5013254;28;20123;-75
2022/07/27 01:36:38;;;;;;;6.45;4.68;;;28.10;52.60;;;;;;5013209;28;20026;-77
2022/07/27 01:39:04;;;;;;;6.20;4.47;;;28.00;52.80;;;;;;5012205;28;20029;-76
2022/07/27 01:41:30;;;;;;;7.07;4.55;;;27.80;52.80;;;;;;5012095;28;20014;-84
2022/07/27 01:43:55;;;;;;;9.05;4.82;;;27.80;52.30;;;;;;5025792;28;20030;-74
2022/07/27 01:46:21;;;;;;;6.35;4.40;;;27.70;52.00;;;;;;5013785;28;20072;-78
2022/07/27 01:48:47;;;;;;;6.85;4.90;;;27.40;52.80;;;;;;5015975;28;20117;-76
2022/07/27 01:51:13;;;;;;;5.60;4.28;;;27.30;53.40;;;;;;5013156;28;20473;-79
2022/07/27 01:53:39;;;;;;;6.40;4.60;;;27.10;54.10;;;;;;5014596;28;20065;-75
2022/07/27 01:56:09;;;;;;;6.72;4.68;;;27.20;53.50;;;;;;5013296;28;20420;-81
2022/07/27 01:58:36;;;;;;;5.97;4.60;;;27.00;54.40;;;;;;5013679;28;20384;-80
2022/07/27 02:01:02;;;;;;;6.32;4.97;;;27.00;54.40;;;;;;5013816;28;20033;-82
2022/07/27 02:03:27;;;;;;;7.00;4.93;;;27.00;54.70;;;;;;5027913;28;20017;-78
2022/07/27 02:05:53;;;;;;;6.85;4.45;;;27.20;54.60;;;;;;5033238;28;20025;-76
2022/07/27 02:08:19;;;;;;;7.50;5.18;;;27.30;54.60;;;;;;5033028;28;20104;-78
2022/07/27 02:13:29;;;;;;;6.78;4.82;;;27.40;54.60;;;;;;5013910;28;20435;-78
2022/07/27 02:15:55;;;;;;;8.00;4.80;;;27.40;54.30;;;;;;5012387;28;20522;-78
2022/07/27 02:18:21;;;;;;;6.90;5.25;;;27.20;54.10;;;;;;5031853;28;20121;-82
2022/07/27 02:20:47;;;;;;;7.20;4.90;;;26.90;54.80;;;;;;5023913;28;20022;-78
2022/07/27 02:23:21;;;;;;;6.78;5.10;;;27.00;55.30;;;;;;5032686;28;20059;-86
2022/07/27 02:25:47;;;;;;;9.25;5.57;;;27.10;54.70;;;;;;5031838;28;20021;-78
2022/07/27 02:28:12;;;;;;;5.95;4.88;;;27.30;54.60;;;;;;5031078;28;20480;-74
2022/07/27 02:30:38;;;;;;;8.35;5.20;;;27.40;53.80;;;;;;5031663;28;20041;-78
2022/07/27 02:33:05;;;;;;;6.97;5.32;;;27.40;53.80;;;;;;5032809;28;20432;-76
2022/07/27 02:35:30;;;;;;;6.80;5.20;;;27.50;53.60;;;;;;5032240;28;20092;-75
2022/07/27 02:37:56;;;;;;;9.27;5.70;;;27.50;53.20;;;;;;5031876;28;20021;-74
2022/07/27 02:40:23;;;;;;;8.40;5.63;;;27.50;53.40;;;;;;5023548;28;20369;-76
2022/07/27 02:42:49;;;;;;;7.38;5.72;;;27.70;53.10;;;;;;5036013;28;20021;-76
2022/07/27 02:45:15;;;;;;;9.13;6.38;;;27.80;52.90;;;;;;5036297;28;20035;-77
2022/07/27 02:47:41;;;;;;;8.57;5.57;;;27.70;53.00;;;;;;5036128;28;20362;-76
2022/07/27 02:50:08;;;;;;;6.90;5.50;;;27.70;53.00;;;;;;5033517;28;20032;-75
2022/07/27 02:52:35;;;;;;;8.55;6.03;;;27.80;52.90;;;;;;5035295;28;20025;-75
2022/07/27 02:55:01;;;;;;;9.40;6.15;;;28.00;52.20;;;;;;5035752;28;20392;-75
2022/07/27 02:57:26;;;;;;;8.00;6.05;;;28.00;52.30;;;;;;5026135;28;20436;-77
2022/07/27 02:59:52;;;;;;;8.75;6.00;;;28.00;52.50;;;;;;5016015;28;20465;-77
2022/07/27 03:02:18;;;;;;;8.65;6.30;;;27.90;52.80;;;;;;5015816;28;20052;-76
2022/07/27 03:04:43;;;;;;;7.03;5.95;;;27.90;53.00;;;;;;5015936;28;20392;-75
2022/07/27 03:07:09;;;;;;;6.82;5.82;;;27.90;53.10;;;;;;5019406;28;20044;-76
2022/07/27 03:09:35;;;;;;;8.52;6.20;;;27.70;53.20;;;;;;5035608;28;20036;-75
2022/07/27 03:12:01;;;;;;;6.82;6.05;;;27.50;53.70;;;;;;5034317;28;20480;-76
2022/07/27 03:14:27;;;;;;;10.57;6.25;;;27.50;53.80;;;;;;5035370;28;20127;-75
2022/07/27 03:16:53;;;;;;;9.35;6.43;;;27.40;54.20;;;;;;5027797;28;20493;-75
2022/07/27 03:19:19;;;;;;;7.43;6.22;;;27.30;54.40;;;;;;5015556;28;20076;-75
2022/07/27 03:21:44;;;;;;;7.20;6.25;;;27.20;54.80;;;;;;5015428;28;20093;-75
2022/07/27 03:24:10;;;;;;;9.63;6.30;;;27.30;54.70;;;;;;5017273;28;20105;-76
2022/07/27 03:26:36;;;;;;;9.30;6.20;;;27.20;54.70;;;;;;5027551;28;20499;-75
2022/07/27 03:29:02;;;;;;;7.45;6.28;;;27.20;54.90;;;;;;5032752;28;20067;-77
2022/07/27 03:31:28;;;;;;;8.70;6.38;;;27.10;55.10;;;;;;5027422;28;20026;-77
2022/07/27 03:33:53;;;;;;;11.07;6.82;;;26.90;55.60;;;;;;5014333;28;20042;-77
2022/07/27 03:36:20;;;;;;;8.10;6.15;;;26.80;56.00;;;;;;5015182;28;20400;-78
2022/07/27 03:38:46;;;;;;;8.40;6.20;;;26.50;56.60;;;;;;5018795;28;20026;-77
2022/07/27 03:41:11;;;;;;;7.38;6.13;;;26.20;56.90;;;;;;5015260;28;20034;-78
2022/07/27 03:43:37;;;;;;;7.47;6.22;;;25.90;57.80;;;;;;5015235;28;20014;-78
2022/07/27 03:46:03;;;;;;;9.27;6.05;;;25.90;58.00;;;;;;5025159;28;20468;-77
2022/07/27 03:48:29;;;;;;;7.93;5.90;;;25.90;57.90;;;;;;5035122;28;20029;-78
2022/07/27 03:50:54;;;;;;;8.50;6.25;;;25.80;58.20;;;;;;5033486;28;20036;-75
2022/07/27 03:53:20;;;;;;;10.10;6.10;;;25.70;58.20;;;;;;5034585;28;20056;-78
2022/07/27 03:55:50;;;;;;;7.35;6.30;;;25.30;59.60;;;;;;5029150;28;20511;-78
2022/07/27 03:58:16;;;;;;;9.07;6.57;;;25.40;59.10;;;;;;5018504;28;20036;-78
2022/07/27 04:00:45;;;;;;;11.43;10.32;;;25.60;58.80;;;;;;5022937;28;20346;-78
2022/07/27 04:03:11;;;;;;;8.02;6.50;;;25.90;58.50;;;;;;5034681;28;20048;-77
2022/07/27 04:05:37;;;;;;;9.02;6.38;;;25.90;58.20;;;;;;5034629;28;20025;-77
2022/07/27 04:08:03;;;;;;;8.25;7.07;;;26.20;57.90;;;;;;5020445;28;20021;-79
2022/07/27 04:10:28;;;;;;;9.68;7.32;;;26.20;57.90;;;;;;5034496;28;20029;-76
2022/07/27 04:12:54;;;;;;;11.38;6.60;;;26.30;57.80;;;;;;5026521;28;20022;-75
2022/07/27 04:15:23;;;;;;;8.80;6.53;;;26.40;57.80;;;;;;5028828;28;20391;-78
2022/07/27 04:17:49;;;;;;;9.07;7.10;;;26.50;57.60;;;;;;5034144;28;20037;-76
2022/07/27 04:20:15;;;;;;;9.52;6.85;;;26.60;57.70;;;;;;5033983;28;20032;-76
2022/07/27 04:22:41;;;;;;;9.98;6.22;;;26.50;57.90;;;;;;5042505;28;20025;-77
2022/07/27 04:25:07;;;;;;;9.00;6.70;;;26.60;57.50;;;;;;5045430;28;20044;-75
2022/07/27 04:27:32;;;;;;;10.10;7.25;;;26.70;57.60;;;;;;5034254;28;20065;-76
2022/07/27 04:29:58;;;;;;;7.70;6.45;;;26.90;57.30;;;;;;5033938;28;20567;-77
2022/07/27 04:32:24;;;;;;;8.43;6.60;;;27.00;57.10;;;;;;5018247;28;20022;-77
2022/07/27 04:34:49;;;;;;;8.23;6.60;;;27.10;56.80;;;;;;5014092;28;20050;-77
2022/07/27 04:37:15;;;;;;;7.82;6.20;;;27.00;57.30;;;;;;5022864;28;20100;-76
2022/07/27 04:39:41;;;;;;;35.33;28.08;;;27.00;57.10;;;;;;5053948;28;20498;-79
2022/07/27 04:42:07;;;;;;;11.95;8.20;;;27.10;57.20;;;;;;5053760;28;20502;-76
2022/07/27 04:44:33;;;;;;;8.18;6.85;;;26.80;57.60;;;;;;5053382;28;20021;-76
2022/07/27 04:46:58;;;;;;;8.13;6.10;;;26.90;57.80;;;;;;5038991;28;20380;-76
2022/07/27 04:49:24;;;;;;;8.85;6.45;;;26.90;57.60;;;;;;5031549;28;20021;-77
2022/07/27 04:51:50;;;;;;;9.57;6.63;;;26.90;58.40;;;;;;5029142;28;20476;-75
2022/07/27 04:54:16;;;;;;;7.50;6.60;;;27.10;58.00;;;;;;5012619;28;20034;-77
2022/07/27 04:56:42;;;;;;;9.68;6.32;;;27.30;57.40;;;;;;5017066;28;20079;-77
2022/07/27 04:59:07;;;;;;;7.65;6.15;;;27.50;57.50;;;;;;5031423;28;20064;-77
2022/07/27 05:01:33;;;;;;;9.38;6.57;;;27.60;57.10;;;;;;5013142;28;20030;-76
2022/07/27 05:03:59;;;;;;;12.85;9.70;;;27.80;57.70;;;;;;5012926;28;20018;-76
2022/07/27 05:06:24;;;;;;;13.13;9.63;;;27.80;56.90;;;;;;5013654;28;20480;-76
2022/07/27 05:08:50;;;;;;;8.40;7.28;;;27.70;57.30;;;;;;5028456;28;20029;-76
2022/07/27 05:11:16;;;;;;;9.48;6.53;;;27.60;57.30;;;;;;5012942;28;20517;-76
2022/07/27 05:13:41;;;;;;;7.60;6.32;;;27.50;57.40;;;;;;5013433;28;20441;-76
2022/07/27 05:16:09;;;;;;;9.48;6.90;;;27.50;57.60;;;;;;5013651;28;20022;-76
2022/07/27 05:18:36;;;;;;;12.07;6.68;;;27.30;57.70;;;;;;5013523;28;20408;-76
2022/07/27 05:21:02;;;;;;;7.45;6.25;;;27.60;57.20;;;;;;5013818;28;20108;-76
2022/07/27 05:23:27;;;;;;;11.15;6.90;;;27.90;56.60;;;;;;5013280;28;20097;-76
2022/07/27 05:25:53;;;;;;;9.93;6.70;;;28.00;56.70;;;;;;4318147;28;10000751;-78
2022/07/27 05:28:19;;;;;;;8.60;6.38;;;28.30;56.20;;;;;;5009899;28;20037;-77
2022/07/27 05:30:45;;;;;;;8.02;6.60;;;28.50;56.00;;;;;;5009587;28;20053;-73
2022/07/27 05:33:10;;;;;;;8.07;6.35;;;28.80;56.00;;;;;;5009121;28;20026;-74
2022/07/27 05:35:36;;;;;;;7.78;6.10;;;29.00;55.70;;;;;;5009473;28;20050;-74
2022/07/27 05:38:02;;;;;;;9.88;6.20;;;29.20;54.70;;;;;;5009590;28;20037;-74
2022/07/27 05:40:28;;;;;;;8.07;6.00;;;29.40;54.40;;;;;;5009746;28;20034;-74
2022/07/27 05:42:54;;;;;;;9.05;5.82;;;29.40;54.70;;;;;;5009183;28;20049;-74
2022/07/27 05:45:20;;;;;;;10.73;6.10;;;29.30;54.70;;;;;;5019363;28;20064;-74
2022/07/27 05:47:46;;;;;;;7.65;6.03;;;29.20;55.00;;;;;;5028865;28;20022;-72
2022/07/27 05:50:12;;;;;;;8.57;5.57;;;29.30;54.90;;;;;;5028796;28;20025;-74
2022/07/27 05:52:38;;;;;;;7.88;5.45;;;29.50;52.80;;;;;;5029359;28;20134;-75
2022/07/27 05:55:05;;;;;;;7.28;5.43;;;29.70;50.90;;;;;;5029138;28;20613;-74
2022/07/27 05:57:30;;;;;;;8.05;6.45;;;29.80;51.60;;;;;;5028992;28;20029;-74
2022/07/27 05:59:57;;;;;;;8.63;4.90;;;29.80;52.20;;;;;;5028740;28;20044;-73
2022/07/27 06:02:24;;;;;;;7.90;5.13;;;29.80;50.10;;;;;;5029199;28;20024;-74
2022/07/27 06:04:49;;;;;;;5.60;4.60;;;29.50;50.10;;;;;;5031066;28;20108;-75
2022/07/27 06:10:00;;;;;;;6.20;5.03;;;30.00;50.50;;;;;;5027236;28;20032;-75
2022/07/27 06:12:26;;;;;;;8.77;4.88;;;30.20;50.20;;;;;;5031620;28;20031;-76
2022/07/27 06:14:52;;;;;;;8.15;4.80;;;30.30;49.90;;;;;;5032903;28;20033;-78
2022/07/27 06:17:18;;;;;;;6.40;4.85;;;30.50;49.30;;;;;;5034506;28;20029;-75
2022/07/27 06:19:44;;;;;;;7.00;4.80;;;30.70;48.80;;;;;;5036194;28;20026;-77
2022/07/27 06:22:10;;;;;;;6.13;4.75;;;30.40;49.20;;;;;;5036366;28;20021;-76
2022/07/27 06:24:35;;;;;;;8.30;4.70;;;30.00;49.20;;;;;;5034191;28;20041;-77
2022/07/27 06:27:01;;;;;;;6.47;4.20;;;29.70;50.60;;;;;;5036144;28;20026;-75
2022/07/27 06:29:27;;;;;;;8.95;4.43;;;29.90;50.10;;;;;;5036696;28;20432;-76
2022/07/27 06:31:53;;;;;;;6.28;4.47;;;29.80;49.20;;;;;;5034971;28;20115;-77
2022/07/27 06:34:19;;;;;;;5.10;4.20;;;30.00;50.60;;;;;;4686146;28;9999610;-76
2022/07/27 06:36:44;;;;;;;6.03;4.28;;;30.40;50.90;;;;;;5033232;28;20033;-80
2022/07/27 06:39:11;;;;;;;7.38;4.00;;;30.50;50.60;;;;;;5033321;28;20025;-91
2022/07/27 06:41:37;;;;;;;6.18;4.35;;;30.70;49.80;;;;;;5035244;28;20025;-77
2022/07/27 06:44:03;;;;;;;5.07;3.97;;;30.90;48.40;;;;;;5032905;28;20029;-78
2022/07/27 06:46:28;;;;;;;5.22;3.88;;;30.90;49.70;;;;;;5032503;28;20033;-78
2022/07/27 06:48:55;;;;;;;6.70;3.47;;;30.80;48.40;;;;;;5033792;28;20030;-80
2022/07/27 06:51:22;;;;;;;5.90;3.97;;;31.00;47.80;;;;;;5032318;28;20412;-78
2022/07/27 06:53:51;;;;;;;6.38;3.30;;;31.20;48.20;;;;;;5033264;28;20443;-76
2022/07/27 06:56:18;;;;;;;5.00;3.40;;;31.10;48.60;;;;;;5036167;28;20490;-77
2022/07/27 06:58:43;;;;;;;5.35;3.55;;;31.20;47.70;;;;;;5034287;28;20032;-77
2022/07/27 07:01:09;;;;;;;5.60;3.28;;;30.70;47.80;;;;;;5033653;28;20029;-76
2022/07/27 07:03:35;;;;;;;5.35;3.35;;;30.40;48.90;;;;;;5033789;28;20756;-79
2022/07/27 07:06:01;;;;;;;5.30;3.67;;;30.40;47.70;;;;;;5032946;28;20029;-79
2022/07/27 07:08:27;;;;;;;6.25;3.33;;;29.90;48.00;;;;;;5034969;28;20025;-77
2022/07/27 07:10:52;;;;;;;5.13;3.10;;;30.00;49.30;;;;;;5034075;28;20033;-78
2022/07/27 07:13:18;;;;;;;4.90;3.20;;;30.00;47.10;;;;;;4684452;28;10001070;-78
2022/07/27 07:15:44;;;;;;;5.93;3.08;;;30.10;48.70;;;;;;5013560;28;20040;-81
2022/07/27 07:18:11;;;;;;;4.60;3.13;;;30.00;48.50;;;;;;5011951;28;20030;-78
2022/07/27 07:20:38;;;;;;;5.45;3.30;;;30.50;47.80;;;;;;5013368;28;20029;-78
2022/07/27 07:23:04;;;;;;;8.63;3.38;;;31.10;47.70;;;;;;5010905;28;20083;-75
2022/07/27 07:25:31;;;;;;;8.25;3.55;;;31.20;47.00;;;;;;5011889;28;20783;-75
2022/07/27 07:27:58;;;;;;;4.60;3.15;;;31.40;47.80;;;;;;5011764;28;20037;-77
2022/07/27 07:30:24;;;;;;;5.10;3.55;;;31.30;47.80;;;;;;5012024;28;20658;-75
2022/07/27 07:32:50;;;;;;;5.28;3.45;;;31.20;48.20;;;;;;5011617;28;20517;-76
2022/07/27 07:35:16;;;;;;;6.95;3.20;;;30.90;48.10;;;;;;5011834;28;20042;-76
2022/07/27 07:37:42;;;;;;;4.10;3.20;;;30.70;48.40;;;;;;5011654;28;20026;-79
2022/07/27 07:40:09;;;;;;;5.07;3.10;;;30.50;48.70;;;;;;5012002;28;20026;-75
2022/07/27 07:43:02;;;;;;;4.78;3.20;;;30.70;48.50;;;;;;5012178;28;20538;-77
2022/07/27 07:45:30;;;;;;;3.90;3.00;;;31.10;48.10;;;;;;5012064;28;20038;-77
2022/07/27 07:47:56;;;;;;;5.60;3.30;;;31.10;47.20;;;;;;5011652;28;20030;-77
2022/07/27 07:50:23;;;;;;;5.07;2.90;;;31.10;48.10;;;;;;5011350;28;20037;-75
2022/07/27 07:52:52;;;;;;;5.18;3.00;;;31.30;46.20;;;;;;5011793;28;20029;-78
2022/07/27 07:55:22;;;;;;;5.20;3.37;;;31.40;47.80;;;;;;5011612;28;20102;-77
2022/07/27 07:57:48;;;;;;;5.60;3.08;;;31.30;46.70;;;;;;5011871;28;20033;-77
2022/07/27 08:00:15;;;;;;;4.32;2.95;;;31.40;48.00;;;;;;5011462;28;20038;-77
2022/07/27 08:02:46;;;;;;;6.03;3.10;;;31.70;47.10;;;;;;5013384;28;20022;-76
2022/07/27 08:05:12;;;;;;;6.45;3.10;;;32.10;47.40;;;;;;5014497;28;20030;-78
2022/07/27 08:07:39;;;;;;;4.85;3.05;;;32.30;46.70;;;;;;5013339;28;20026;-76
2022/07/27 08:10:07;;;;;;;5.40;3.20;;;31.90;45.80;;;;;;5014733;28;20030;-75
2022/07/27 08:12:33;;;;;;;6.72;3.42;;;31.70;45.80;;;;;;5014297;28;20365;-77
2022/07/27 08:14:59;;;;;;;4.43;3.10;;;31.80;47.20;;;;;;5014616;28;20042;-77
2022/07/27 08:17:25;;;;;;;5.57;2.90;;;31.70;46.80;;;;;;5013116;28;20384;-76
2022/07/27 08:19:50;;;;;;;7.90;3.22;;;31.60;46.80;;;;;;5014346;28;20073;-76
2022/07/27 08:22:16;;;;;;;4.20;2.78;;;31.80;47.50;;;;;;5014124;28;20022;-77
2022/07/27 08:24:42;;;;;;;4.85;2.83;;;32.10;46.40;;;;;;5021988;28;20079;-76
2022/07/27 08:27:07;;;;;;;4.50;2.85;;;31.80;45.00;;;;;;5024377;28;20029;-76
2022/07/27 08:29:33;;;;;;;4.63;2.78;;;32.00;46.40;;;;;;5023597;28;20033;-79
2022/07/27 08:31:59;;;;;;;5.97;2.58;;;32.30;46.40;;;;;;5022586;28;20021;-77
2022/07/27 08:34:25;;;;;;;5.60;3.08;;;32.30;44.60;;;;;;5021955;28;20380;-77
2022/07/27 08:36:50;;;;;;;7.13;3.10;;;32.10;44.80;;;;;;5021158;28;20029;-79
2022/07/27 08:39:16;;;;;;;4.72;2.72;;;32.30;45.10;;;;;;5013080;28;20076;-78
2022/07/27 08:41:43;;;;;;;6.30;2.80;;;32.70;44.70;;;;;;5013967;28;20464;-79
2022/07/27 08:44:14;;;;;;;5.53;2.90;;;32.50;44.60;;;;;;4843390;28;10000811;-79
2022/07/27 08:46:42;;;;;;;6.10;3.05;;;32.40;45.60;;;;;;5011050;28;20217;-78
2022/07/27 08:49:08;;;;;;;5.00;2.80;;;32.90;44.90;;;;;;5010327;28;20030;-77
2022/07/27 08:51:34;;;;;;;4.35;3.10;;;33.30;44.80;;;;;;5010163;28;20076;-78
2022/07/27 08:54:00;;;;;;;5.90;2.90;;;33.30;44.10;;;;;;5011576;28;20108;-81
2022/07/27 08:56:26;;;;;;;6.03;3.80;;;33.60;43.50;;;;;;5010181;28;20468;-78
2022/07/27 08:58:52;;;;;;;5.78;3.50;;;33.60;43.90;;;;;;5010362;28;20049;-79
2022/07/27 09:01:19;;;;;;;6.50;3.90;;;33.70;43.90;;;;;;5009947;28;20085;-77
2022/07/27 09:03:44;;;;;;;9.95;4.70;;;33.80;43.30;;;;;;5008044;28;20025;-77
2022/07/27 09:06:10;;;;;;;6.50;5.00;;;33.60;42.70;;;;;;5010162;28;20068;-78
2022/07/27 09:08:40;;;;;;;5.88;4.38;;;33.40;43.10;;;;;;5025145;28;20083;-79
2022/07/27 09:11:14;;;;;;;5.45;4.32;;;33.60;42.40;;;;;;5031655;28;20105;-79
2022/07/27 09:13:40;;;;;;;6.10;4.45;;;33.00;43.00;;;;;;5030213;28;20111;-77
2022/07/27 09:16:08;;;;;;;7.30;4.90;;;32.60;43.70;;;;;;5031069;28;20049;-78
2022/07/27 09:18:36;;;;;;;7.00;4.95;;;32.50;43.30;;;;;;5032679;28;20033;-78
2022/07/27 09:21:20;;;;;;;5.70;4.45;;;32.60;42.90;;;;;;5033283;28;20017;-79
2022/07/27 09:24:12;;;;;;;10.20;5.18;;;33.10;44.20;;;;;;5029376;28;20021;-77
2022/07/27 09:26:38;;;;;;;6.97;5.05;;;33.20;42.70;;;;;;5030899;28;20068;-80
2022/07/27 09:29:11;;;;;;;8.82;5.65;;;33.60;42.90;;;;;;5031991;28;20025;-79
2022/07/27 09:31:42;;;;;;;6.35;5.15;;;33.60;42.50;;;;;;5030541;28;20087;-78
2022/07/27 09:34:09;;;;;;;7.65;5.35;;;33.60;43.60;;;;;;5028693;28;20029;-79
2022/07/27 09:36:52;;;;;;;6.38;5.28;;;33.40;43.50;;;;;;5030412;28;20049;-78
2022/07/27 09:39:23;;;;;;;8.77;4.80;;;33.20;43.00;;;;;;5031266;28;20375;-79
2022/07/27 09:41:51;;;;;;;6.15;4.75;;;33.60;43.30;;;;;;5029741;28;20026;-80
2022/07/27 09:44:30;;;;;;;5.57;4.45;;;33.80;42.80;;;;;;5031689;28;20040;-80
2022/07/27 09:46:56;;;;;;;5.75;4.80;;;34.20;43.70;;;;;;5032934;28;20080;-78
2022/07/27 09:49:33;;;;;;;8.07;4.90;;;34.50;43.00;;;;;;5033168;28;20042;-79
2022/07/27 09:52:03;;;;;;;6.75;5.20;;;34.00;42.80;;;;;;5037193;28;20056;-79
2022/07/27 09:54:45;;;;;;;7.43;4.82;;;34.00;43.10;;;;;;5035678;28;20030;-83
2022/07/27 09:57:11;;;;;;;9.00;5.07;;;34.20;42.30;;;;;;5037449;28;20499;-81
2022/07/27 09:59:37;;;;;;;7.07;5.40;;;34.20;43.00;;;;;;5035533;28;20061;-81
2022/07/27 10:02:03;;;;;;;7.47;5.45;;;34.00;42.50;;;;;;5037138;28;20021;-79
2022/07/27 10:04:32;;;;;;;7.75;5.45;;;34.10;43.00;;;;;;5036833;28;20476;-78
2022/07/27 10:06:58;;;;;;;6.18;5.07;;;34.20;42.10;;;;;;5036834;28;20057;-80
2022/07/27 10:09:24;;;;;;;8.90;5.65;;;34.60;43.10;;;;;;5037004;28;20349;-79
2022/07/27 10:11:50;;;;;;;8.13;5.60;;;34.90;41.50;;;;;;5036436;28;20499;-79
2022/07/27 10:14:16;;;;;;;6.63;5.63;;;34.80;42.00;;;;;;5035391;28;20083;-78
2022/07/27 10:16:47;;;;;;;7.38;5.13;;;34.70;41.90;;;;;;5036896;28;20021;-82
2022/07/27 10:19:46;;;;;;;8.02;5.82;;;34.90;41.00;;;;;;5037198;28;20043;-81
2022/07/27 10:22:13;;;;;;;7.30;5.43;;;35.30;41.90;;;;;;5036771;28;20350;-78
2022/07/27 10:24:38;;;;;;;7.75;5.78;;;35.60;41.10;;;;;;5035262;28;20071;-79
2022/07/27 10:27:27;;;;;;;9.10;5.88;;;35.50;41.80;;;;;;5036227;28;20465;-79
2022/07/27 10:29:55;;;;;;;6.72;6.03;;;35.80;40.90;;;;;;5036786;28;20034;-78
2022/07/27 10:32:29;;;;;;;8.27;5.80;;;36.00;40.70;;;;;;5037240;28;20461;-79
2022/07/27 10:34:56;;;;;;;7.50;5.80;;;36.20;41.00;;;;;;5036550;28;20089;-80
2022/07/27 10:37:28;;;;;;;6.75;5.90;;;36.10;40.00;;;;;;5036691;28;20030;-81
2022/07/27 10:43:04;;;;;;;6.60;5.88;;;35.90;40.40;;;;;;5036416;28;20099;-79
2022/07/27 10:45:43;;;;;;;10.57;5.97;;;35.80;40.10;;;;;;5036433;28;20014;-80
2022/07/27 10:48:36;;;;;;;7.13;5.65;;;35.90;40.20;;;;;;5036120;28;20026;-78
2022/07/27 10:51:06;;;;;;;7.70;5.60;;;35.80;39.90;;;;;;5036232;28;20116;-79
2022/07/27 10:53:37;;;;;;;6.88;5.47;;;35.90;40.50;;;;;;5036516;28;20053;-79
2022/07/27 10:56:05;;;;;;;8.02;6.32;;;36.70;40.70;;;;;;5036633;28;20447;-78
2022/07/27 10:58:30;;;;;;;7.20;5.63;;;37.00;39.90;;;;;;5036189;28;20026;-79
2022/07/27 11:01:06;;;;;;;6.22;5.18;;;37.00;39.60;;;;;;5034569;28;20036;-79
2022/07/27 11:03:38;;;;;;;6.55;5.03;;;36.90;40.20;;;;;;5035944;28;20029;-78
2022/07/27 11:06:26;;;;;;;5.87;4.50;;;37.00;39.60;;;;;;4337422;28;10000753;-78
2022/07/27 11:08:53;;;;;;;6.53;5.18;;;36.90;39.80;;;;;;5035832;28;20017;-78
2022/07/27 11:11:21;;;;;;;6.60;5.15;;;36.60;40.10;;;;;;5032750;28;20029;-78
2022/07/27 11:13:56;;;;;;;10.20;7.97;;;36.40;40.60;;;;;;5035271;28;20029;-76
2022/07/27 11:16:22;;;;;;;7.10;5.10;;;36.00;40.10;;;;;;5035071;28;20404;-78
2022/07/27 11:19:04;;;;;;;8.60;5.40;;;35.60;41.20;;;;;;5035709;28;20436;-79
2022/07/27 11:21:33;;;;;;;8.00;5.78;;;35.90;42.00;;;;;;5036003;28;20026;-79
2022/07/27 11:24:02;;;;;;;6.80;5.95;;;36.30;39.50;;;;;;5035792;28;20013;-82
2022/07/27 11:26:30;;;;;;;7.57;5.63;;;36.30;39.90;;;;;;5035808;28;20021;-80
2022/07/27 11:28:56;;;;;;;6.60;5.65;;;36.30;40.40;;;;;;5035891;28;20372;-80
2022/07/27 11:31:22;;;;;;;7.38;5.57;;;36.40;39.60;;;;;;5034791;28;20029;-81
2022/07/27 11:33:52;;;;;;;6.43;5.35;;;36.50;39.90;;;;;;5034366;28;20025;-80
2022/07/27 11:36:19;;;;;;;7.78;5.78;;;36.30;39.40;;;;;;5035590;28;20045;-80
2022/07/27 11:38:46;;;;;;;6.25;4.88;;;36.40;39.70;;;;;;5034614;28;20021;-79
2022/07/27 11:41:21;;;;;;;8.00;5.40;;;36.50;39.80;;;;;;5035671;28;20024;-87
2022/07/27 11:43:46;;;;;;;8.25;5.60;;;36.30;39.10;;;;;;5035813;28;20049;-79
2022/07/27 11:46:18;;;;;;;6.93;5.50;;;36.10;40.30;;;;;;5035567;28;20357;-81
2022/07/27 11:48:50;;;;;;;7.95;5.60;;;36.20;40.60;;;;;;5035618;28;20014;-79
2022/07/27 11:51:16;;;;;;;6.65;5.10;;;36.20;39.40;;;;;;5035047;28;20033;-80
2022/07/27 11:53:43;;;;;;;8.70;5.72;;;36.30;39.80;;;;;;5035620;28;20108;-79
2022/07/27 11:56:09;;;;;;;5.65;4.72;;;36.50;39.90;;;;;;5035328;28;20057;-80
2022/07/27 11:58:57;;;;;;;5.50;4.53;;;36.60;41.60;;;;;;5035092;28;20103;-79
2022/07/27 12:01:50;;;;;;;6.45;5.10;;;36.50;40.70;;;;;;5035207;28;20033;-80
2022/07/27 12:04:17;;;;;;;7.22;4.63;;;36.60;40.90;;;;;;5035170;28;20033;-79
2022/07/27 12:06:46;;;;;;;6.07;4.80;;;36.70;41.40;;;;;;5033839;28;20028;-79
2022/07/27 12:09:15;;;;;;;8.75;4.70;;;36.60;40.30;;;;;;5034840;28;20025;-79
2022/07/27 12:11:52;;;;;;;12.68;5.20;;;36.60;40.60;;;;;;5035233;28;20029;-80
2022/07/27 12:14:32;;;;;;;7.38;4.97;;;36.80;40.50;;;;;;5033896;28;20053;-79
2022/07/27 12:17:12;;;;;;;6.28;4.28;;;36.90;40.00;;;;;;5033554;28;20458;-78
2022/07/27 12:19:39;;;;;;;5.05;3.97;;;36.90;39.20;;;;;;5034782;28;20029;-79
2022/07/27 12:22:05;;;;;;;5.32;4.07;;;36.80;40.40;;;;;;5034439;28;20520;-79
2022/07/27 12:24:32;;;;;;;6.45;4.47;;;36.80;39.20;;;;;;5034529;28;20155;-79
2022/07/27 12:27:04;;;;;;;6.22;4.28;;;36.70;39.40;;;;;;5033258;28;20022;-79
2022/07/27 12:29:30;;;;;;;5.75;4.85;;;37.10;40.00;;;;;;5035378;28;20025;-80
2022/07/27 12:32:01;;;;;;;5.13;4.25;;;37.30;38.80;;;;;;5034994;28;20021;-84
2022/07/27 12:34:35;;;;;;;7.07;4.05;;;37.20;39.00;;;;;;5034588;28;20042;-81
2022/07/27 12:37:10;;;;;;;5.72;3.80;;;37.10;38.40;;;;;;5034783;28;20065;-78
2022/07/27 12:39:36;;;;;;;6.68;4.15;;;36.90;38.30;;;;;;5034244;28;20108;-81
2022/07/27 12:42:04;;;;;;;6.80;4.10;;;36.70;38.80;;;;;;5034511;28;20101;-79
2022/07/27 12:44:37;;;;;;;5.95;4.10;;;36.70;39.10;;;;;;5033156;28;20017;-85
2022/07/27 12:50:25;;;;;;;5.68;4.43;;;36.90;39.60;;;;;;5031942;28;20128;-78
2022/07/27 12:52:52;;;;;;;5.65;4.30;;;36.90;38.50;;;;;;5032515;28;20018;-78
2022/07/27 12:55:19;;;;;;;6.35;3.80;;;37.00;38.20;;;;;;5031644;28;20041;-79
2022/07/27 12:57:47;;;;;;;5.15;3.80;;;36.80;37.90;;;;;;5032126;28;20036;-87
2022/07/27 13:00:15;;;;;;;6.13;3.75;;;36.90;37.90;;;;;;5015668;28;20476;-79
2022/07/27 13:02:42;;;;;;;5.50;4.07;;;37.10;38.60;;;;;;5031729;28;20038;-79